createdAt,value
2017-08-30T00:01:25.445Z,99561.59
2017-08-30T00:03:51.598Z,99565.19
2017-08-30T00:06:17.769Z,99565.49
2017-08-30T00:08:43.941Z,99564.28
2017-08-30T00:11:10.109Z,99564.86
2017-08-30T00:13:36.283Z,99564.98
2017-08-30T00:16:02.454Z,99565.96
2017-08-30T00:18:28.621Z,99567.02
2017-08-30T00:20:54.788Z,99574.69
2017-08-30T00:23:20.962Z,99579.50
2017-08-30T00:25:47.123Z,99581.67
2017-08-30T00:28:13.280Z,99577.69
2017-08-30T00:30:39.440Z,99579.05
2017-08-30T00:33:05.600Z,99576.91
2017-08-30T00:35:31.769Z,99580.95
2017-08-30T00:37:57.953Z,99576.02
2017-08-30T00:40:24.111Z,99574.07
2017-08-30T00:42:50.286Z,99577.19
2017-08-30T00:45:16.456Z,99579.34
2017-08-30T00:47:42.613Z,99577.84
2017-08-30T00:50:08.786Z,99570.95
2017-08-30T00:52:34.951Z,99570.26
2017-08-30T00:55:01.103Z,99581.51
2017-08-30T00:57:27.264Z,99581.09
2017-08-30T00:59:53.449Z,99583.48
2017-08-30T01:02:19.599Z,99582.44
2017-08-30T01:04:45.762Z,99584.53
2017-08-30T01:07:11.940Z,99587.25
2017-08-30T01:09:38.120Z,99590.06
2017-08-30T01:12:04.281Z,99591.00
2017-08-30T01:14:30.460Z,99591.50
2017-08-30T01:16:56.620Z,99593.73
2017-08-30T01:19:22.800Z,99594.88
2017-08-30T01:21:48.983Z,99599.36
2017-08-30T01:24:15.150Z,99602.29
2017-08-30T01:26:41.334Z,99603.15
2017-08-30T01:29:07.491Z,99601.62
2017-08-30T01:31:33.659Z,99599.60
2017-08-30T01:33:59.836Z,99595.09
2017-08-30T01:36:26.012Z,99595.34
2017-08-30T01:38:52.194Z,99594.28
2017-08-30T01:41:18.381Z,99593.16
2017-08-30T01:43:44.545Z,99590.97
2017-08-30T01:46:10.710Z,99598.52
2017-08-30T01:48:36.893Z,99595.45
2017-08-30T01:51:03.067Z,99600.45
2017-08-30T01:53:29.241Z,99591.44
2017-08-30T01:55:55.408Z,99593.97
2017-08-30T01:58:21.561Z,99595.39
2017-08-30T02:00:47.710Z,99599.17
2017-08-30T02:03:13.864Z,99602.03
2017-08-30T02:05:40.043Z,99606.61
2017-08-30T02:08:06.209Z,99603.09
2017-08-30T02:10:32.372Z,99610.85
2017-08-30T02:12:58.528Z,99607.48
2017-08-30T02:15:24.684Z,99613.56
2017-08-30T02:17:50.852Z,99623.60
2017-08-30T02:20:17.000Z,99622.44
2017-08-30T02:22:43.145Z,99614.41
2017-08-30T02:25:09.322Z,99621.48
2017-08-30T02:27:35.491Z,99629.14
2017-08-30T02:30:01.657Z,99630.70
2017-08-30T02:32:27.834Z,99630.28
2017-08-30T02:34:54.020Z,99624.94
2017-08-30T02:37:20.176Z,99629.13
2017-08-30T02:39:46.340Z,99627.47
2017-08-30T02:42:12.490Z,99633.20
2017-08-30T02:44:38.670Z,99638.41
2017-08-30T02:47:04.841Z,99635.97
2017-08-30T02:49:31.003Z,99641.33
2017-08-30T02:51:57.166Z,99640.77
2017-08-30T02:54:23.331Z,99635.48
2017-08-30T02:56:49.497Z,99643.95
2017-08-30T02:59:15.661Z,99637.07
2017-08-30T03:01:41.819Z,99645.22
2017-08-30T03:04:07.993Z,99650.46
2017-08-30T03:06:34.149Z,99654.69
2017-08-30T03:09:00.318Z,99647.78
2017-08-30T03:11:26.488Z,99654.16
2017-08-30T03:13:52.666Z,99651.03
2017-08-30T03:16:18.832Z,99649.27
2017-08-30T03:18:44.979Z,99646.86
2017-08-30T03:21:11.131Z,99649.44
2017-08-30T03:23:37.282Z,99652.34
2017-08-30T03:26:03.448Z,99651.02
2017-08-30T03:28:29.620Z,99652.84
2017-08-30T03:30:55.794Z,99658.05
2017-08-30T03:33:21.952Z,99662.45
2017-08-30T03:35:48.128Z,99663.28
2017-08-30T03:38:14.288Z,99657.74
2017-08-30T03:40:40.462Z,99664.58
2017-08-30T03:43:06.624Z,99659.04
2017-08-30T03:45:32.784Z,99664.48
2017-08-30T03:47:58.963Z,99664.05
2017-08-30T03:50:25.143Z,99669.02
2017-08-30T03:52:51.335Z,99670.67
2017-08-30T03:55:17.506Z,99666.06
2017-08-30T03:57:43.678Z,99670.92
2017-08-30T04:00:10.911Z,99675.53
2017-08-30T04:02:37.089Z,99672.53
2017-08-30T04:05:03.234Z,99677.11
2017-08-30T04:07:29.403Z,99678.01
2017-08-30T04:09:55.567Z,99678.90
2017-08-30T04:12:21.737Z,99674.72
2017-08-30T04:14:48.841Z,99682.44
2017-08-30T04:17:15.013Z,99683.55
2017-08-30T04:19:41.174Z,99680.16
2017-08-30T04:22:07.341Z,99678.69
2017-08-30T04:24:33.519Z,99682.58
2017-08-30T04:26:59.693Z,99682.30
2017-08-30T04:29:25.867Z,99685.37
2017-08-30T04:31:52.027Z,99688.05
2017-08-30T04:34:18.219Z,99682.06
2017-08-30T04:36:44.396Z,99677.52
2017-08-30T04:39:10.565Z,99669.12
2017-08-30T04:41:36.733Z,99673.47
2017-08-30T04:44:02.900Z,99671.20
2017-08-30T04:46:29.085Z,99664.99
2017-08-30T04:48:55.256Z,99666.92
2017-08-30T04:51:21.406Z,99674.80
2017-08-30T04:53:47.569Z,99675.27
2017-08-30T04:56:13.733Z,99680.47
2017-08-30T04:58:39.888Z,99682.35
2017-08-30T05:01:06.040Z,99684.42
2017-08-30T05:03:32.195Z,99679.31
2017-08-30T05:05:58.358Z,99673.87
2017-08-30T05:08:24.540Z,99681.06
2017-08-30T05:10:50.698Z,99684.80
2017-08-30T05:13:16.860Z,99688.28
2017-08-30T05:15:43.011Z,99683.86
2017-08-30T05:18:09.200Z,99683.61
2017-08-30T05:20:35.375Z,99691.78
2017-08-30T05:23:01.541Z,99679.34
2017-08-30T05:25:27.697Z,99681.27
2017-08-30T05:27:53.865Z,99683.24
2017-08-30T05:30:20.051Z,99682.67
2017-08-30T05:32:46.198Z,99684.83
2017-08-30T05:35:12.367Z,99685.31
2017-08-30T05:37:38.533Z,99686.67
2017-08-30T05:40:04.707Z,99692.23
2017-08-30T05:42:30.864Z,99692.30
2017-08-30T05:44:57.036Z,99690.30
2017-08-30T05:47:23.192Z,99682.92
2017-08-30T05:49:49.341Z,99688.58
2017-08-30T05:52:15.498Z,99687.91
2017-08-30T05:54:41.647Z,99680.77
2017-08-30T05:57:07.805Z,99687.63
2017-08-30T05:59:33.973Z,99693.60
2017-08-30T06:02:00.134Z,99691.38
2017-08-30T06:04:26.316Z,99694.08
2017-08-30T06:06:52.482Z,99688.64
2017-08-30T06:09:18.648Z,99688.73
2017-08-30T06:11:44.811Z,99687.67
2017-08-30T06:14:10.963Z,99689.01
2017-08-30T06:16:37.126Z,99685.00
2017-08-30T06:19:03.296Z,99688.84
2017-08-30T06:21:29.446Z,99683.72
2017-08-30T06:23:55.610Z,99686.59
2017-08-30T06:26:21.772Z,99683.29
2017-08-30T06:28:47.943Z,99677.57
2017-08-30T06:31:14.094Z,99679.29
2017-08-30T06:33:40.267Z,99682.04
2017-08-30T06:36:06.444Z,99679.45
2017-08-30T06:38:32.592Z,99686.38
2017-08-30T06:40:58.738Z,99684.62
2017-08-30T06:43:24.886Z,99681.81
2017-08-30T06:45:51.055Z,99686.95
2017-08-30T06:48:17.229Z,99688.15
2017-08-30T06:50:43.467Z,99685.47
2017-08-30T06:53:09.616Z,99688.36
2017-08-30T06:55:35.789Z,99690.78
2017-08-30T06:58:01.948Z,99681.37
2017-08-30T07:00:28.104Z,99684.59
2017-08-30T07:02:54.255Z,99685.56
2017-08-30T07:05:20.419Z,99683.13
2017-08-30T07:07:46.566Z,99682.11
2017-08-30T07:10:12.729Z,99683.58
2017-08-30T07:12:38.899Z,99682.09
2017-08-30T07:15:05.053Z,99681.29
2017-08-30T07:17:31.202Z,99679.59
2017-08-30T07:19:57.359Z,99672.65
2017-08-30T07:22:23.530Z,99679.25
2017-08-30T07:24:49.684Z,99678.44
2017-08-30T07:27:15.856Z,99678.75
2017-08-30T07:29:42.012Z,99683.14
2017-08-30T07:32:08.195Z,99686.14
2017-08-30T07:34:34.362Z,99683.27
2017-08-30T07:37:00.657Z,99676.42
2017-08-30T07:39:26.819Z,99679.59
2017-08-30T07:41:52.962Z,99674.95
2017-08-30T07:44:19.147Z,99672.48
2017-08-30T07:46:45.328Z,99671.55
2017-08-30T07:49:11.528Z,99676.52
2017-08-30T07:51:37.703Z,99668.79
2017-08-30T07:54:03.867Z,99673.52
2017-08-30T07:56:30.032Z,99681.13
2017-08-30T07:58:56.210Z,99675.19
2017-08-30T08:01:22.386Z,99675.03
2017-08-30T08:03:48.538Z,99666.55
2017-08-30T08:06:14.709Z,99673.98
2017-08-30T08:08:40.883Z,99673.45
2017-08-30T08:11:07.040Z,99669.30
2017-08-30T08:13:33.211Z,99667.30
2017-08-30T08:15:59.378Z,99661.34
2017-08-30T08:18:25.548Z,99668.63
2017-08-30T08:20:51.722Z,99660.98
2017-08-30T08:23:17.871Z,99660.51
2017-08-30T08:25:44.022Z,99663.80
2017-08-30T08:28:10.189Z,99664.25
2017-08-30T08:30:36.380Z,99663.03
2017-08-30T08:33:02.540Z,99660.73
2017-08-30T08:35:28.686Z,99666.37
2017-08-30T08:37:54.860Z,99658.69
2017-08-30T08:40:21.019Z,99661.95
2017-08-30T08:42:47.168Z,99658.31
2017-08-30T08:45:13.346Z,99657.41
2017-08-30T08:47:39.532Z,99649.41
2017-08-30T08:50:05.698Z,99648.09
2017-08-30T08:52:31.859Z,99648.09
2017-08-30T08:54:58.004Z,99653.11
2017-08-30T08:57:24.155Z,99654.04
2017-08-30T08:59:50.324Z,99650.66
2017-08-30T09:02:16.573Z,99652.30
2017-08-30T09:04:42.733Z,99647.98
2017-08-30T09:07:08.909Z,99648.73
2017-08-30T09:09:35.064Z,99652.13
2017-08-30T09:12:01.239Z,99653.84
2017-08-30T09:14:27.385Z,99652.95
2017-08-30T09:16:53.550Z,99645.23
2017-08-30T09:19:19.699Z,99635.52
2017-08-30T09:21:45.877Z,99634.89
2017-08-30T09:24:12.036Z,99624.36
2017-08-30T09:26:38.213Z,99625.09
2017-08-30T09:29:04.376Z,99622.04
2017-08-30T09:31:30.546Z,99621.03
2017-08-30T09:33:56.699Z,99624.80
2017-08-30T09:36:22.864Z,99628.30
2017-08-30T09:38:49.051Z,99627.67
2017-08-30T09:41:15.203Z,99623.19
2017-08-30T09:43:41.365Z,99614.42
2017-08-30T09:46:07.523Z,99612.24
2017-08-30T09:48:33.687Z,99612.23
2017-08-30T09:50:59.866Z,99611.48
2017-08-30T09:53:26.012Z,99620.05
2017-08-30T09:55:52.179Z,99609.06
2017-08-30T09:58:18.392Z,99612.02
2017-08-30T10:00:44.542Z,99614.26
2017-08-30T10:03:10.723Z,99610.47
2017-08-30T10:05:36.914Z,99605.63
2017-08-30T10:08:03.073Z,99608.23
2017-08-30T10:10:29.230Z,99607.92
2017-08-30T10:12:55.407Z,99606.52
2017-08-30T10:15:21.587Z,99602.82
2017-08-30T10:17:47.745Z,99599.27
2017-08-30T10:20:13.893Z,99597.64
2017-08-30T10:22:40.057Z,99594.10
2017-08-30T10:25:06.216Z,99592.46
2017-08-30T10:27:32.390Z,99596.20
2017-08-30T10:29:58.549Z,99584.72
2017-08-30T10:32:24.718Z,99583.68
2017-08-30T10:34:50.878Z,99587.78
2017-08-30T10:37:17.044Z,99585.53
2017-08-30T10:39:43.218Z,99578.18
2017-08-30T10:42:09.381Z,99572.91
2017-08-30T10:44:35.545Z,99575.92
2017-08-30T10:47:01.705Z,99569.05
2017-08-30T10:49:27.859Z,99571.84
2017-08-30T10:51:54.020Z,99570.25
2017-08-30T10:54:20.195Z,99565.43
2017-08-30T10:56:46.366Z,99566.06
2017-08-30T10:59:12.535Z,99565.03
2017-08-30T11:01:38.686Z,99561.92
2017-08-30T11:04:04.838Z,99560.93
2017-08-30T11:06:30.983Z,99559.09
2017-08-30T11:08:57.139Z,99560.70
2017-08-30T11:11:23.297Z,99559.41
2017-08-30T11:13:49.456Z,99556.22
2017-08-30T11:16:15.617Z,99557.91
2017-08-30T11:18:41.788Z,99558.37
2017-08-30T11:21:07.951Z,99548.30
2017-08-30T11:23:38.052Z,99544.09
2017-08-30T11:26:04.224Z,99542.71
2017-08-30T11:28:30.391Z,99539.23
2017-08-30T11:30:56.556Z,99528.32
2017-08-30T11:33:22.728Z,99521.97
2017-08-30T11:35:48.898Z,99533.41
2017-08-30T11:38:15.062Z,99533.45
2017-08-30T11:40:41.229Z,99526.52
2017-08-30T11:43:07.393Z,99532.05
2017-08-30T11:45:33.549Z,99533.41
2017-08-30T11:47:59.706Z,99528.42
2017-08-30T11:50:25.876Z,99530.95
2017-08-30T11:52:52.045Z,99530.61
2017-08-30T11:55:18.210Z,99535.25
2017-08-30T11:57:44.371Z,99525.38
2017-08-30T12:00:10.552Z,99523.53
2017-08-30T12:02:36.711Z,99518.90
2017-08-30T12:05:02.877Z,99513.16
2017-08-30T12:07:29.040Z,99505.26
2017-08-30T12:09:55.207Z,99501.28
2017-08-30T12:12:21.364Z,99506.27
2017-08-30T12:14:47.547Z,99508.05
2017-08-30T12:17:13.711Z,99495.69
2017-08-30T12:19:39.869Z,99495.83
2017-08-30T12:22:06.028Z,99497.59
2017-08-30T12:24:32.190Z,99491.18
2017-08-30T12:26:58.410Z,99494.03
2017-08-30T12:29:24.563Z,99489.02
2017-08-30T12:31:50.714Z,99492.08
2017-08-30T12:34:16.877Z,99490.58
2017-08-30T12:36:43.021Z,99475.39
2017-08-30T12:39:09.178Z,99484.60
2017-08-30T12:41:35.352Z,99476.50
2017-08-30T12:44:01.541Z,99481.63
2017-08-30T12:46:27.704Z,99474.83
2017-08-30T12:48:53.877Z,99470.74
2017-08-30T12:51:20.048Z,99468.27
2017-08-30T12:53:46.213Z,99461.63
2017-08-30T12:56:12.382Z,99461.39
2017-08-30T12:58:38.539Z,99461.66
2017-08-30T13:01:04.698Z,99452.02
2017-08-30T13:03:30.896Z,99445.39
2017-08-30T13:05:57.059Z,99450.52
2017-08-30T13:08:23.216Z,99446.00
2017-08-30T13:10:49.401Z,99443.28
2017-08-30T13:13:15.586Z,99440.73
2017-08-30T13:15:41.747Z,99444.11
2017-08-30T13:18:07.902Z,99444.50
2017-08-30T13:20:34.076Z,99442.09
2017-08-30T13:23:00.237Z,99449.73
2017-08-30T13:25:26.448Z,99441.66
2017-08-30T13:27:52.608Z,99442.94
2017-08-30T13:30:18.774Z,99435.13
2017-08-30T13:32:44.971Z,99432.98
2017-08-30T13:35:11.147Z,99443.86
2017-08-30T13:37:37.295Z,99441.75
2017-08-30T13:40:03.455Z,99440.66
2017-08-30T13:42:29.598Z,99439.11
2017-08-30T13:44:55.763Z,99442.55
2017-08-30T13:47:21.939Z,99429.95
2017-08-30T13:49:48.119Z,99434.21
2017-08-30T13:52:14.275Z,99432.40
2017-08-30T13:54:40.455Z,99427.95
2017-08-30T13:57:06.626Z,99427.00
2017-08-30T13:59:32.796Z,99430.50
2017-08-30T14:01:58.964Z,99426.66
2017-08-30T14:04:25.132Z,99425.09
2017-08-30T14:06:51.328Z,99426.94
2017-08-30T14:09:17.523Z,99424.11
2017-08-30T14:11:43.696Z,99425.67
2017-08-30T14:14:09.857Z,99428.06
2017-08-30T14:16:36.024Z,99426.91
2017-08-30T14:19:02.183Z,99422.42
2017-08-30T14:21:28.352Z,99430.25
2017-08-30T14:23:54.535Z,99430.91
2017-08-30T14:26:20.738Z,99420.53
2017-08-30T14:28:46.901Z,99432.98
2017-08-30T14:31:13.053Z,99427.37
2017-08-30T14:33:39.231Z,99426.29
2017-08-30T14:36:05.407Z,99431.05
2017-08-30T14:38:31.562Z,99433.71
2017-08-30T14:40:57.731Z,99434.97
2017-08-30T14:43:23.900Z,99440.61
2017-08-30T14:45:50.070Z,99444.30
2017-08-30T14:48:16.210Z,99445.67
2017-08-30T14:50:42.382Z,99438.27
2017-08-30T14:53:08.546Z,99438.22
2017-08-30T14:55:34.740Z,99428.60
2017-08-30T14:58:00.921Z,99433.66
2017-08-30T15:00:27.083Z,99437.08
2017-08-30T15:02:53.261Z,99432.38
2017-08-30T15:05:19.439Z,99430.91
2017-08-30T15:07:45.610Z,99425.53
2017-08-30T15:10:11.763Z,99431.53
2017-08-30T15:12:37.943Z,99425.95
2017-08-30T15:15:04.127Z,99423.55
2017-08-30T15:17:30.308Z,99423.22
2017-08-30T15:19:56.487Z,99418.55
2017-08-30T15:22:22.664Z,99418.84
2017-08-30T15:24:48.834Z,99416.00
2017-08-30T15:27:15.001Z,99418.94
2017-08-30T15:29:41.161Z,99414.23
2017-08-30T15:32:07.324Z,99417.43
2017-08-30T15:34:33.490Z,99415.89
2017-08-30T15:36:59.673Z,99420.14
2017-08-30T15:39:25.851Z,99418.32
2017-08-30T15:41:52.036Z,99416.11
2017-08-30T15:44:18.210Z,99416.98
2017-08-30T15:46:44.387Z,99419.98
2017-08-30T15:49:10.562Z,99419.95
2017-08-30T15:51:36.725Z,99417.62
2017-08-30T15:54:02.881Z,99418.40
2017-08-30T15:56:29.031Z,99422.49
2017-08-30T15:58:55.214Z,99422.64
2017-08-30T16:01:21.383Z,99424.14
2017-08-30T16:03:47.596Z,99427.59
2017-08-30T16:06:13.775Z,99428.28
2017-08-30T16:08:39.946Z,99427.17
2017-08-30T16:11:06.146Z,99430.92
2017-08-30T16:13:32.323Z,99428.63
2017-08-30T16:15:58.499Z,99428.02
2017-08-30T16:18:24.672Z,99430.80
2017-08-30T16:20:50.831Z,99431.75
2017-08-30T16:23:16.986Z,99427.70
2017-08-30T16:25:43.158Z,99437.58
2017-08-30T16:28:09.324Z,99442.42
2017-08-30T16:30:35.504Z,99443.80
2017-08-30T16:33:01.676Z,99445.36
2017-08-30T16:35:27.837Z,99443.58
2017-08-30T16:37:53.992Z,99448.41
2017-08-30T16:40:20.169Z,99451.30
2017-08-30T16:42:46.342Z,99455.34
2017-08-30T16:45:12.514Z,99459.44
2017-08-30T16:47:38.678Z,99466.02
2017-08-30T16:50:04.849Z,99458.92
2017-08-30T16:52:31.028Z,99454.86
2017-08-30T16:54:57.206Z,99453.89
2017-08-30T16:57:23.440Z,99456.36
2017-08-30T16:59:52.032Z,99458.70
2017-08-30T17:02:19.232Z,99454.36
2017-08-30T17:04:47.119Z,99453.73
2017-08-30T17:07:13.382Z,99459.22
2017-08-30T17:09:39.543Z,99464.60
2017-08-30T17:12:05.729Z,99462.47
2017-08-30T17:14:31.915Z,99458.33
2017-08-30T17:16:58.084Z,99465.06
2017-08-30T17:19:24.242Z,99470.81
2017-08-30T17:21:50.403Z,99476.32
2017-08-30T17:24:16.585Z,99476.36
2017-08-30T17:26:42.759Z,99476.17
2017-08-30T17:29:08.925Z,99476.94
2017-08-30T17:31:35.089Z,99483.28
2017-08-30T17:34:01.252Z,99484.70
2017-08-30T17:36:27.422Z,99487.48
2017-08-30T17:38:53.605Z,99492.64
2017-08-30T17:41:19.768Z,99492.95
2017-08-30T17:43:45.946Z,99492.96
2017-08-30T17:46:12.138Z,99490.11
2017-08-30T17:48:38.349Z,99497.39
2017-08-30T17:51:04.513Z,99496.72
2017-08-30T17:53:30.680Z,99494.83
2017-08-30T17:55:56.844Z,99504.28
2017-08-30T17:58:23.016Z,99499.59
2017-08-30T18:00:49.185Z,99500.99
2017-08-30T18:03:15.363Z,99502.61
2017-08-30T18:05:41.527Z,99509.38
2017-08-30T18:08:07.716Z,99504.36
2017-08-30T18:10:33.883Z,99499.34
2017-08-30T18:13:00.061Z,99500.47
2017-08-30T18:15:26.218Z,99506.81
2017-08-30T18:17:52.395Z,99507.21
2017-08-30T18:20:18.590Z,99506.55
2017-08-30T18:22:44.775Z,99513.83
2017-08-30T18:25:10.949Z,99506.45
2017-08-30T18:27:37.122Z,99515.90
2017-08-30T18:30:03.311Z,99516.83
2017-08-30T18:32:29.478Z,99512.52
2017-08-30T18:34:55.650Z,99520.41
2017-08-30T18:37:21.838Z,99517.64
2017-08-30T18:39:48.014Z,99528.74
2017-08-30T18:42:14.201Z,99522.39
2017-08-30T18:44:40.374Z,99522.94
2017-08-30T18:47:06.592Z,99525.91
2017-08-30T18:49:32.762Z,99525.00
2017-08-30T18:51:58.942Z,99529.69
2017-08-30T18:54:25.118Z,99535.00
2017-08-30T18:56:51.288Z,99535.48
2017-08-30T18:59:17.441Z,99533.72
2017-08-30T19:01:43.618Z,99532.45
2017-08-30T19:04:09.813Z,99534.81
2017-08-30T19:06:35.989Z,99537.85
2017-08-30T19:09:02.142Z,99538.83
2017-08-30T19:11:28.303Z,99544.39
2017-08-30T19:13:54.489Z,99539.98
2017-08-30T19:16:20.673Z,99539.20
2017-08-30T19:18:47.057Z,99535.89
2017-08-30T19:21:13.218Z,99543.92
2017-08-30T19:23:39.380Z,99539.72
2017-08-30T19:26:05.535Z,99547.77
2017-08-30T19:28:31.687Z,99546.02
2017-08-30T19:30:57.861Z,99544.06
2017-08-30T19:33:24.039Z,99543.94
2017-08-30T19:35:50.203Z,99547.40
2017-08-30T19:38:16.357Z,99548.09
2017-08-30T19:40:42.669Z,99544.31
2017-08-30T19:43:08.849Z,99544.74
2017-08-30T19:45:35.013Z,99549.59
2017-08-30T19:48:01.171Z,99552.67
2017-08-30T19:50:27.332Z,99554.97
2017-08-30T19:52:53.508Z,99552.44
2017-08-30T19:55:19.682Z,99547.69
2017-08-30T19:57:45.839Z,99547.47
2017-08-30T20:00:12.014Z,99552.11
2017-08-30T20:02:38.166Z,99550.83
2017-08-30T20:05:04.341Z,99552.48
2017-08-30T20:07:30.516Z,99557.69
2017-08-30T20:09:56.681Z,99551.04
2017-08-30T20:12:22.836Z,99563.02
2017-08-30T20:14:48.992Z,99555.36
2017-08-30T20:17:15.165Z,99559.92
2017-08-30T20:19:41.330Z,99559.18
2017-08-30T20:22:07.483Z,99559.71
2017-08-30T20:24:33.655Z,99555.14
2017-08-30T20:26:59.829Z,99557.48
2017-08-30T20:29:26.015Z,99560.76
2017-08-30T20:31:52.178Z,99559.45
2017-08-30T20:34:18.363Z,99567.53
2017-08-30T20:36:44.547Z,99566.33
2017-08-30T20:39:10.706Z,99559.39
2017-08-30T20:41:36.889Z,99564.47
2017-08-30T20:44:03.070Z,99571.17
2017-08-30T20:46:29.257Z,99565.75
2017-08-30T20:48:55.438Z,99561.61
2017-08-30T20:51:21.615Z,99565.08
2017-08-30T20:53:47.880Z,99563.80
2017-08-30T20:56:14.115Z,99561.58
2017-08-30T20:58:40.318Z,99565.13
2017-08-30T21:01:06.543Z,99565.57
2017-08-30T21:03:32.806Z,99562.95
2017-08-30T21:05:59.016Z,99572.39
2017-08-30T21:08:25.254Z,99572.20
2017-08-30T21:10:51.468Z,99572.54
2017-08-30T21:13:17.739Z,99572.81
2017-08-30T21:15:43.925Z,99565.77
2017-08-30T21:18:10.187Z,99573.87
2017-08-30T21:20:36.441Z,99577.49
2017-08-30T21:23:02.641Z,99576.55
2017-08-30T21:25:28.865Z,99570.67
2017-08-30T21:27:55.098Z,99572.04
2017-08-30T21:30:21.320Z,99575.78
2017-08-30T21:32:47.562Z,99570.52
2017-08-30T21:35:13.788Z,99571.63
2017-08-30T21:37:40.013Z,99575.60
2017-08-30T21:40:06.245Z,99577.14
2017-08-30T21:42:32.471Z,99571.41
2017-08-30T21:44:58.740Z,99571.80
2017-08-30T21:47:24.931Z,99571.78
2017-08-30T21:49:51.156Z,99571.63
2017-08-30T21:52:17.400Z,99567.06
2017-08-30T21:54:43.630Z,99569.69
2017-08-30T21:57:09.815Z,99572.02
2017-08-30T21:59:36.104Z,99569.63
2017-08-30T22:02:02.324Z,99566.33
2017-08-30T22:04:28.522Z,99565.17
2017-08-30T22:06:54.760Z,99569.09
2017-08-30T22:09:21.000Z,99568.86
2017-08-30T22:11:47.226Z,99565.99
2017-08-30T22:14:13.479Z,99567.23
2017-08-30T22:16:39.688Z,99563.73
2017-08-30T22:19:05.918Z,99574.41
2017-08-30T22:21:32.131Z,99566.30
2017-08-30T22:23:58.302Z,99561.54
2017-08-30T22:26:24.514Z,99563.05
2017-08-30T22:28:50.725Z,99559.45
2017-08-30T22:31:16.982Z,99557.85
2017-08-30T22:33:43.203Z,99557.89
2017-08-30T22:36:09.428Z,99558.44
2017-08-30T22:38:35.630Z,99558.77
2017-08-30T22:41:01.867Z,99564.34
2017-08-30T22:43:28.103Z,99559.05
2017-08-30T22:45:54.341Z,99553.88
2017-08-30T22:48:20.575Z,99546.01
2017-08-30T22:50:46.792Z,99549.12
2017-08-30T22:53:13.020Z,99542.97
2017-08-30T22:55:39.269Z,99536.68
2017-08-30T22:58:05.506Z,99541.65
2017-08-30T23:00:31.781Z,99541.19
2017-08-30T23:02:58.065Z,99532.82
2017-08-30T23:05:24.291Z,99531.06
2017-08-30T23:07:50.511Z,99533.13
2017-08-30T23:10:16.742Z,99528.73
2017-08-30T23:12:42.973Z,99532.92
2017-08-30T23:15:09.193Z,99541.84
2017-08-30T23:17:35.417Z,99547.28
2017-08-30T23:20:01.655Z,99545.92
2017-08-30T23:22:27.887Z,99543.74
2017-08-30T23:24:54.119Z,99544.92
2017-08-30T23:27:20.547Z,99541.53
2017-08-30T23:29:46.816Z,99542.71
2017-08-30T23:32:13.004Z,99537.24
2017-08-30T23:34:39.255Z,99545.66
2017-08-30T23:37:05.459Z,99538.15
2017-08-30T23:39:31.689Z,99537.12
2017-08-30T23:41:57.924Z,99536.19
2017-08-30T23:44:24.143Z,99533.16
2017-08-30T23:46:50.389Z,99535.05
2017-08-30T23:49:16.617Z,99532.05
2017-08-30T23:51:42.842Z,99530.19
2017-08-30T23:54:09.067Z,99526.35
2017-08-30T23:56:35.296Z,99525.38
2017-08-30T23:59:01.575Z,99518.77
